Hector International Airport
KFAR : rendu visible

Aérodrome :











RETROUVEZ-NOUS SUR...

 
LOGIN :

S'inscrire | Disclaimer

   EN    FR    IT 

 









Légende :    VFR   VFR Marginal   IFR   IFR Intensif   IFR Très Intensif
Visi : 
Plafond : 
>= 8 km
>= 3000ft
5 à 8 km
1000 à 3000 ft
1500m à 5 km
500 à 1000 ft
800 à 1500m
200 à 500 ft
< 800m
< 200 ft
Symboles :   Orages  Brouillard  Fortes neiges  Fortes précipitations  Vent > 20 kt






- Altitude de l'aérodrome : 902 ft
- Code IATA : FAR


KFAR - Hector International

DERNIER METAR :
  • 281253Z 31014G23KT 10SM CLR 16/04 A3003 RMK AO2 SLP168 T01610044

METARs EXPIRÉS :
  • 281153Z 29014KT 10SM CLR 14/04 A3002 RMK AO2 SLP164 T01390044 10178 20094 53014
  • 281053Z 26007KT 10SM CLR 09/04 A3000 RMK AO2 SLP158 T00940044

TAF KFAR
Valide du 28 à 12h jusqu'au 29 à 12h UTC


281139Z 2812/2912 28010KT P6SM FEW100
FM281300 30015G23KT P6SM SKC
FM281900 33020G32KT P6SM BKN060
FM290400 33010KT P6SM FEW250
FIR KZMP / Amérique du Nord



MET'MAP, la Météo Aéronautique d'un coup d'oeil ! - Copyright ORBIFLY Décembre 2007 - Disclaimer

ORBIFLY MET'MAP TEAM :

Programmation & Développement : Alexandra Zaïnal
Sur une idée originale de : Baudouin d'Aumeries
Assistance à la programmation : Marc-Olivier Méhu
Soutien technique & logistique : Manuel Goepfert

Contact : metmap@orbifly.com




SOURCES & CREDITS :

   NOAA       Earth
Advisory